createdAt,value
2019-05-21T00:01:33.968Z,11.78
2019-05-21T00:04:03.308Z,11.50
2019-05-21T00:06:32.815Z,11.69
2019-05-21T00:09:03.440Z,11.78
2019-05-21T00:11:34.546Z,11.83
2019-05-21T00:14:03.908Z,11.82
2019-05-21T00:16:33.237Z,11.83
2019-05-21T00:19:02.588Z,11.86
2019-05-21T00:21:32.875Z,11.87
2019-05-21T00:24:02.248Z,11.84
2019-05-21T00:26:31.565Z,11.73
2019-05-21T00:29:36.432Z,11.80
2019-05-21T00:32:41.521Z,11.75
2019-05-21T00:35:49.712Z,11.69
2019-05-21T00:38:54.668Z,11.67
2019-05-21T00:41:59.772Z,11.63
2019-05-21T00:44:30.584Z,11.58
2019-05-21T00:47:00.069Z,11.52
2019-05-21T00:49:29.453Z,11.56
2019-05-21T00:52:07.046Z,11.54
2019-05-21T00:54:29.858Z,11.57
2019-05-21T00:56:59.199Z,11.57
2019-05-21T00:59:28.541Z,11.61
2019-05-21T01:01:57.882Z,11.61
2019-05-21T01:04:27.312Z,11.61
2019-05-21T01:06:56.668Z,11.56
2019-05-21T01:09:26.024Z,11.24
2019-05-21T01:11:55.342Z,11.41
2019-05-21T01:14:24.822Z,11.44
2019-05-21T01:16:54.228Z,11.60
2019-05-21T01:19:23.522Z,11.52
2019-05-21T01:21:52.842Z,11.57
2019-05-21T01:24:22.208Z,11.62
2019-05-21T01:26:51.569Z,11.58
2019-05-21T01:29:20.895Z,11.45
2019-05-21T01:31:50.262Z,11.50
2019-05-21T01:34:19.637Z,11.39
2019-05-21T01:36:48.987Z,11.12
2019-05-21T01:39:18.422Z,11.15
2019-05-21T01:41:48.141Z,11.13
2019-05-21T01:44:17.513Z,11.00
2019-05-21T01:46:46.893Z,11.01
2019-05-21T01:49:16.254Z,10.85
2019-05-21T01:51:45.595Z,10.89
2019-05-21T01:54:15.106Z,10.85
2019-05-21T01:56:45.621Z,10.78
2019-05-21T01:59:14.966Z,10.89
2019-05-21T02:01:45.464Z,10.97
2019-05-21T02:04:14.808Z,10.96
2019-05-21T02:06:44.453Z,11.02
2019-05-21T02:09:13.969Z,11.03
2019-05-21T02:11:43.305Z,10.68
2019-05-21T02:14:12.686Z,10.74
2019-05-21T02:16:42.059Z,10.82
2019-05-21T02:19:11.390Z,10.93
2019-05-21T02:21:40.794Z,10.91
2019-05-21T02:24:10.175Z,10.87
2019-05-21T02:26:39.539Z,10.69
2019-05-21T02:29:08.877Z,10.65
2019-05-21T02:31:38.218Z,10.61
2019-05-21T02:34:07.574Z,10.63
2019-05-21T02:36:36.916Z,10.65
2019-05-21T02:39:07.575Z,10.69
2019-05-21T02:41:36.959Z,10.66
2019-05-21T02:44:06.384Z,10.60
2019-05-21T02:46:36.515Z,10.50
2019-05-21T02:49:05.881Z,10.56
2019-05-21T02:51:35.233Z,10.36
2019-05-21T02:54:04.579Z,10.23
2019-05-21T02:56:33.940Z,10.22
2019-05-21T02:59:03.283Z,10.28
2019-05-21T03:01:41.453Z,10.25
2019-05-21T03:04:10.815Z,10.17
2019-05-21T03:06:40.167Z,10.21
2019-05-21T03:09:09.517Z,10.21
2019-05-21T03:11:39.019Z,10.27
2019-05-21T03:14:08.356Z,10.29
2019-05-21T03:16:37.677Z,10.36
2019-05-21T03:19:07.023Z,10.34
2019-05-21T03:21:36.343Z,10.30
2019-05-21T03:24:05.725Z,10.35
2019-05-21T03:26:35.090Z,10.25
2019-05-21T03:29:04.449Z,10.25
2019-05-21T03:31:33.822Z,10.32
2019-05-21T03:34:03.150Z,10.35
2019-05-21T03:36:34.276Z,10.35
2019-05-21T03:39:04.959Z,10.43
2019-05-21T03:41:34.361Z,10.51
2019-05-21T03:44:03.696Z,10.54
2019-05-21T03:46:33.240Z,10.59
2019-05-21T03:49:02.586Z,10.62
2019-05-21T03:51:31.987Z,10.66
2019-05-21T03:54:01.389Z,10.67
2019-05-21T03:56:30.758Z,10.56
2019-05-21T03:59:00.100Z,10.66
2019-05-21T04:01:29.417Z,10.76
2019-05-21T04:03:58.784Z,10.77
2019-05-21T04:06:29.020Z,10.89
2019-05-21T04:08:58.512Z,10.99
2019-05-21T04:11:27.854Z,11.07
2019-05-21T04:13:57.190Z,11.11
2019-05-21T04:16:45.465Z,11.18
2019-05-21T04:19:18.691Z,11.23
2019-05-21T04:21:48.030Z,11.28
2019-05-21T04:24:17.376Z,11.34
2019-05-21T04:26:46.771Z,11.34
2019-05-21T04:29:16.188Z,11.24
2019-05-21T04:31:45.537Z,11.40
2019-05-21T04:34:15.327Z,11.42
2019-05-21T04:36:44.832Z,11.54
2019-05-21T04:39:14.233Z,11.61
2019-05-21T04:41:43.638Z,11.68
2019-05-21T04:44:13.000Z,11.70
2019-05-21T04:46:42.317Z,11.74
2019-05-21T04:49:11.774Z,11.80
2019-05-21T04:51:41.417Z,11.86
2019-05-21T04:54:10.781Z,11.97
2019-05-21T04:56:40.182Z,12.04
2019-05-21T04:59:09.552Z,12.14
2019-05-21T05:01:38.876Z,12.24
2019-05-21T05:04:08.659Z,12.33
2019-05-21T05:06:38.042Z,12.43
2019-05-21T05:09:07.665Z,12.53
2019-05-21T05:11:37.075Z,12.54
2019-05-21T05:14:06.517Z,12.64
2019-05-21T05:16:35.963Z,12.74
2019-05-21T05:19:05.391Z,12.82
2019-05-21T05:21:34.793Z,12.84
2019-05-21T05:24:04.125Z,12.99
2019-05-21T05:26:33.480Z,13.06
2019-05-21T05:29:02.887Z,13.17
2019-05-21T05:31:32.253Z,13.14
2019-05-21T05:34:01.691Z,13.29
2019-05-21T05:36:31.099Z,13.21
2019-05-21T05:39:00.470Z,13.24
2019-05-21T05:41:29.801Z,13.36
2019-05-21T05:43:59.228Z,13.34
2019-05-21T05:46:28.603Z,13.51
2019-05-21T05:49:06.348Z,13.51
2019-05-21T05:51:35.701Z,13.65
2019-05-21T05:54:07.722Z,13.67
2019-05-21T05:56:36.131Z,13.70
2019-05-21T05:59:05.626Z,13.77
2019-05-21T06:01:35.113Z,13.90
2019-05-21T06:04:04.591Z,13.87
2019-05-21T06:06:33.964Z,13.99
2019-05-21T06:09:04.808Z,14.00
2019-05-21T06:11:34.175Z,14.12
2019-05-21T06:14:03.537Z,14.28
2019-05-21T06:16:32.880Z,14.43
2019-05-21T06:19:04.763Z,14.57
2019-05-21T06:21:34.108Z,14.65
2019-05-21T06:24:03.443Z,14.81
2019-05-21T06:26:32.786Z,14.87
2019-05-21T06:29:02.179Z,14.87
2019-05-21T06:31:31.601Z,15.09
2019-05-21T06:34:01.026Z,15.09
2019-05-21T06:36:30.412Z,15.28
2019-05-21T06:38:59.804Z,15.42
2019-05-21T06:41:29.226Z,15.53
2019-05-21T06:43:58.747Z,15.55
2019-05-21T06:46:28.160Z,15.78
2019-05-21T06:48:58.042Z,15.92
2019-05-21T06:51:27.471Z,16.12
2019-05-21T06:53:56.811Z,16.23
2019-05-21T06:56:26.168Z,16.30
2019-05-21T06:58:57.059Z,16.20
2019-05-21T07:01:28.718Z,16.02
2019-05-21T07:03:57.564Z,16.13
2019-05-21T07:06:26.919Z,16.14
2019-05-21T07:08:56.309Z,16.04
2019-05-21T07:11:25.732Z,16.21
2019-05-21T07:13:55.140Z,16.22
2019-05-21T07:16:24.522Z,16.38
2019-05-21T07:18:53.914Z,16.55
2019-05-21T07:21:23.332Z,16.59
2019-05-21T07:23:52.648Z,16.65
2019-05-21T07:26:22.003Z,16.71
2019-05-21T07:28:52.922Z,16.64
2019-05-21T07:31:22.585Z,16.82
2019-05-21T07:33:52.931Z,16.83
2019-05-21T07:36:22.281Z,16.93
2019-05-21T07:38:53.863Z,17.05
2019-05-21T07:41:22.758Z,17.11
2019-05-21T07:43:52.215Z,17.13
2019-05-21T07:46:21.601Z,17.09
2019-05-21T07:48:50.968Z,17.27
2019-05-21T07:51:20.375Z,17.47
2019-05-21T07:53:49.738Z,17.61
2019-05-21T07:56:19.109Z,17.72
2019-05-21T07:58:48.500Z,17.76
2019-05-21T08:01:17.882Z,18.00
2019-05-21T08:03:47.202Z,17.97
2019-05-21T08:06:16.603Z,18.08
2019-05-21T08:08:45.986Z,18.06
2019-05-21T08:11:15.447Z,18.26
2019-05-21T08:13:44.835Z,18.24
2019-05-21T08:16:14.293Z,18.41
2019-05-21T08:18:43.665Z,18.56
2019-05-21T08:21:13.040Z,18.70
2019-05-21T08:23:42.414Z,18.66
2019-05-21T08:26:11.790Z,18.67
2019-05-21T08:28:41.173Z,18.62
2019-05-21T08:31:10.587Z,18.46
2019-05-21T08:33:40.504Z,18.52
2019-05-21T08:36:09.918Z,18.44
2019-05-21T08:38:39.398Z,18.51
2019-05-21T08:41:08.820Z,18.21
2019-05-21T08:43:38.204Z,18.33
2019-05-21T08:46:07.683Z,18.35
2019-05-21T08:48:37.054Z,17.97
2019-05-21T08:51:06.559Z,18.20
2019-05-21T08:53:35.891Z,18.22
2019-05-21T08:56:05.338Z,18.32
2019-05-21T08:58:34.743Z,18.40
2019-05-21T09:01:04.220Z,18.48
2019-05-21T09:03:33.515Z,18.69
2019-05-21T09:06:02.865Z,18.84
2019-05-21T09:08:32.249Z,18.90
2019-05-21T09:11:01.655Z,19.11
2019-05-21T09:13:31.458Z,19.44
2019-05-21T09:16:00.866Z,19.39
2019-05-21T09:18:30.225Z,19.49
2019-05-21T09:20:59.563Z,19.53
2019-05-21T09:23:29.002Z,19.49
2019-05-21T09:25:58.468Z,19.43
2019-05-21T09:28:27.806Z,19.39
2019-05-21T09:30:57.154Z,19.36
2019-05-21T09:33:26.546Z,19.17
2019-05-21T09:35:55.985Z,19.12
2019-05-21T09:38:25.324Z,19.37
2019-05-21T09:40:54.784Z,19.54
2019-05-21T09:43:24.111Z,19.57
2019-05-21T09:45:53.454Z,19.63
2019-05-21T09:48:22.773Z,19.57
2019-05-21T09:50:52.133Z,19.60
2019-05-21T09:53:21.492Z,19.75
2019-05-21T09:55:50.905Z,19.59
2019-05-21T09:58:28.432Z,19.21
2019-05-21T10:01:05.707Z,19.30
2019-05-21T10:03:37.943Z,19.36
2019-05-21T10:06:07.296Z,19.56
2019-05-21T10:08:37.292Z,19.95
2019-05-21T10:11:06.747Z,20.34
2019-05-21T10:13:36.152Z,20.63
2019-05-21T10:16:05.519Z,20.55
2019-05-21T10:18:34.850Z,20.73
2019-05-21T10:21:04.179Z,20.78
2019-05-21T10:23:36.593Z,20.70
2019-05-21T10:26:06.059Z,20.73
2019-05-21T10:28:35.399Z,20.73
2019-05-21T10:31:04.753Z,20.65
2019-05-21T10:33:34.112Z,20.98
2019-05-21T10:36:03.502Z,21.26
2019-05-21T10:38:32.869Z,21.40
2019-05-21T10:41:02.368Z,21.40
2019-05-21T10:43:31.830Z,21.09
2019-05-21T10:46:01.175Z,21.23
2019-05-21T10:48:30.521Z,21.00
2019-05-21T10:50:59.852Z,20.90
2019-05-21T10:53:29.198Z,20.98
2019-05-21T10:55:58.556Z,20.95
2019-05-21T10:58:27.894Z,20.99
2019-05-21T11:01:06.006Z,21.57
2019-05-21T11:04:11.977Z,21.77
2019-05-21T11:06:41.637Z,21.86
2019-05-21T11:09:17.472Z,21.96
2019-05-21T11:11:46.861Z,22.55
2019-05-21T11:14:21.152Z,21.71
2019-05-21T11:16:50.592Z,22.18
2019-05-21T11:19:19.944Z,22.15
2019-05-21T11:21:49.243Z,22.64
2019-05-21T11:24:18.609Z,21.92
2019-05-21T11:26:48.065Z,22.02
2019-05-21T11:29:17.376Z,22.26
2019-05-21T11:31:56.526Z,22.73
2019-05-21T11:34:17.842Z,23.26
2019-05-21T11:36:47.277Z,23.89
2019-05-21T11:39:16.601Z,23.10
2019-05-21T11:41:46.038Z,22.82
2019-05-21T11:44:15.374Z,21.96
2019-05-21T11:46:44.765Z,20.79
2019-05-21T11:49:14.117Z,19.71
2019-05-21T11:51:43.433Z,18.94
2019-05-21T11:54:12.812Z,18.86
2019-05-21T11:56:42.196Z,19.59
2019-05-21T11:59:11.621Z,20.44
2019-05-21T12:01:40.991Z,20.90
2019-05-21T12:04:10.347Z,20.29
2019-05-21T12:06:39.785Z,19.93
2019-05-21T12:09:09.695Z,20.14
2019-05-21T12:11:39.093Z,20.51
2019-05-21T12:14:08.450Z,20.61
2019-05-21T12:16:37.799Z,20.67
2019-05-21T12:19:08.217Z,20.78
2019-05-21T12:21:37.999Z,20.40
2019-05-21T12:24:07.323Z,20.97
2019-05-21T12:26:37.000Z,21.40
2019-05-21T12:29:06.408Z,21.29
2019-05-21T12:31:35.727Z,21.25
2019-05-21T12:34:05.345Z,21.32
2019-05-21T12:36:34.754Z,21.50
2019-05-21T12:39:14.223Z,21.54
2019-05-21T12:41:36.626Z,22.28
2019-05-21T12:44:05.950Z,22.72
2019-05-21T12:46:35.793Z,23.21
2019-05-21T12:49:05.176Z,22.67
2019-05-21T12:51:34.540Z,21.97
2019-05-21T12:54:03.908Z,21.82
2019-05-21T12:56:33.295Z,21.48
2019-05-21T12:59:02.795Z,21.99
2019-05-21T13:01:32.242Z,22.36
2019-05-21T13:04:01.579Z,22.44
2019-05-21T13:06:30.953Z,22.29
2019-05-21T13:09:00.629Z,21.73
2019-05-21T13:11:30.807Z,21.79
2019-05-21T13:14:00.159Z,22.06
2019-05-21T13:16:29.576Z,21.78
2019-05-21T13:18:59.000Z,21.59
2019-05-21T13:21:28.387Z,21.40
2019-05-21T13:23:57.729Z,21.20
2019-05-21T13:26:27.076Z,21.17
2019-05-21T13:28:56.417Z,20.50
2019-05-21T13:31:25.734Z,20.28
2019-05-21T13:33:55.081Z,19.76
2019-05-21T13:36:24.434Z,19.57
2019-05-21T13:38:53.773Z,19.28
2019-05-21T13:41:23.130Z,19.75
2019-05-21T13:43:52.530Z,20.50
2019-05-21T13:46:22.120Z,21.07
2019-05-21T13:48:51.510Z,21.13
2019-05-21T13:51:20.842Z,21.77
2019-05-21T13:53:50.174Z,21.91
2019-05-21T13:56:19.567Z,21.85
2019-05-21T13:58:48.932Z,21.37
2019-05-21T14:01:19.757Z,21.25
2019-05-21T14:03:49.237Z,21.04
2019-05-21T14:06:20.430Z,21.01
2019-05-21T14:08:49.662Z,20.88
2019-05-21T14:11:18.993Z,20.40
2019-05-21T14:13:48.364Z,19.88
2019-05-21T14:16:17.692Z,19.31
2019-05-21T14:18:47.059Z,19.21
2019-05-21T14:21:16.398Z,19.37
2019-05-21T14:23:45.779Z,20.30
2019-05-21T14:26:15.264Z,21.34
2019-05-21T14:28:44.698Z,22.04
2019-05-21T14:31:14.054Z,22.74
2019-05-21T14:33:46.647Z,23.10
2019-05-21T14:36:14.514Z,22.33
2019-05-21T14:38:43.866Z,21.68
2019-05-21T14:41:13.228Z,21.05
2019-05-21T14:43:42.557Z,20.94
2019-05-21T14:46:11.979Z,21.06
2019-05-21T14:48:41.333Z,21.74
2019-05-21T14:51:13.391Z,22.31
2019-05-21T14:53:41.790Z,22.74
2019-05-21T14:56:11.177Z,22.86
2019-05-21T14:58:40.574Z,23.30
2019-05-21T15:01:10.050Z,23.80
2019-05-21T15:03:39.377Z,23.97
2019-05-21T15:06:08.782Z,23.96
2019-05-21T15:08:38.174Z,24.02
2019-05-21T15:11:07.541Z,23.85
2019-05-21T15:13:36.909Z,23.95
2019-05-21T15:16:06.324Z,24.05
2019-05-21T15:18:35.716Z,24.02
2019-05-21T15:21:29.851Z,24.15
2019-05-21T15:23:59.338Z,23.81
2019-05-21T15:26:28.691Z,23.73
2019-05-21T15:28:58.087Z,23.30
2019-05-21T15:31:27.418Z,23.08
2019-05-21T15:33:56.791Z,23.00
2019-05-21T15:36:26.179Z,22.77
2019-05-21T15:38:55.549Z,22.82
2019-05-21T15:41:24.921Z,21.65
2019-05-21T15:43:54.314Z,21.16
2019-05-21T15:46:23.746Z,20.59
2019-05-21T15:48:53.113Z,19.86
2019-05-21T15:51:22.524Z,19.32
2019-05-21T15:53:51.907Z,18.60
2019-05-21T15:56:21.285Z,17.91
2019-05-21T15:58:50.663Z,17.54
2019-05-21T16:01:20.080Z,17.51
2019-05-21T16:03:49.454Z,17.52
2019-05-21T16:06:18.915Z,17.60
2019-05-21T16:08:48.595Z,17.76
2019-05-21T16:11:28.092Z,17.97
2019-05-21T16:13:49.105Z,17.86
2019-05-21T16:16:18.525Z,17.75
2019-05-21T16:18:47.866Z,17.73
2019-05-21T16:21:17.516Z,17.56
2019-05-21T16:23:46.914Z,17.61
2019-05-21T16:26:16.356Z,17.40
2019-05-21T16:28:45.690Z,18.06
2019-05-21T16:31:15.090Z,18.72
2019-05-21T16:33:44.431Z,18.95
2019-05-21T16:36:13.990Z,18.94
2019-05-21T16:38:43.403Z,18.97
2019-05-21T16:41:12.767Z,19.22
2019-05-21T16:43:42.113Z,19.39
2019-05-21T16:46:11.623Z,19.23
2019-05-21T16:48:40.963Z,18.91
2019-05-21T16:51:10.345Z,18.55
2019-05-21T16:53:39.709Z,18.51
2019-05-21T16:56:09.246Z,18.17
2019-05-21T16:58:38.602Z,18.14
2019-05-21T17:01:08.028Z,18.33
2019-05-21T17:03:37.435Z,18.29
2019-05-21T17:06:07.121Z,18.17
2019-05-21T17:08:36.672Z,18.23
2019-05-21T17:11:06.115Z,18.35
2019-05-21T17:13:35.554Z,18.15
2019-05-21T17:16:05.051Z,18.26
2019-05-21T17:18:34.457Z,18.31
2019-05-21T17:21:03.858Z,18.48
2019-05-21T17:23:34.280Z,18.47
2019-05-21T17:26:03.686Z,18.67
2019-05-21T17:28:33.174Z,18.73
2019-05-21T17:31:02.619Z,18.44
2019-05-21T17:33:32.141Z,18.57
2019-05-21T17:36:01.501Z,18.27
2019-05-21T17:38:31.115Z,18.38
2019-05-21T17:41:00.583Z,18.14
2019-05-21T17:43:29.948Z,17.81
2019-05-21T17:45:59.577Z,17.76
2019-05-21T17:48:28.954Z,17.67
2019-05-21T17:50:58.650Z,17.47
2019-05-21T17:53:28.172Z,17.48
2019-05-21T17:55:57.493Z,17.54
2019-05-21T17:58:27.035Z,17.55
2019-05-21T18:01:00.188Z,17.61
2019-05-21T18:03:29.759Z,17.63
2019-05-21T18:05:59.813Z,17.72
2019-05-21T18:08:30.172Z,17.68
2019-05-21T18:11:00.660Z,17.72
2019-05-21T18:13:31.107Z,17.73
2019-05-21T18:16:00.480Z,17.62
2019-05-21T18:18:30.306Z,17.64
2019-05-21T18:20:59.875Z,17.66
2019-05-21T18:23:29.291Z,17.64
2019-05-21T18:25:59.001Z,17.51
2019-05-21T18:28:28.537Z,17.50
2019-05-21T18:30:57.989Z,17.41
2019-05-21T18:33:27.349Z,17.43
2019-05-21T18:35:56.877Z,17.29
2019-05-21T18:38:26.613Z,17.12
2019-05-21T18:40:56.000Z,17.08
2019-05-21T18:43:25.618Z,16.99
2019-05-21T18:45:55.232Z,16.99
2019-05-21T18:48:24.703Z,16.99
2019-05-21T18:50:54.030Z,16.78
2019-05-21T18:53:23.381Z,16.86
2019-05-21T18:55:52.773Z,16.68
2019-05-21T18:58:22.213Z,16.63
2019-05-21T19:00:51.560Z,16.52
2019-05-21T19:03:28.015Z,16.53
2019-05-21T19:05:52.307Z,16.48
2019-05-21T19:08:21.831Z,16.32
2019-05-21T19:10:51.357Z,16.27
2019-05-21T19:13:20.697Z,16.34
2019-05-21T19:15:50.071Z,16.34
2019-05-21T19:18:19.641Z,16.40
2019-05-21T19:20:50.052Z,16.30
2019-05-21T19:23:19.628Z,16.26
2019-05-21T19:25:49.058Z,16.18
2019-05-21T19:28:18.527Z,15.99
2019-05-21T19:30:47.898Z,15.99
2019-05-21T19:33:17.347Z,15.89
2019-05-21T19:35:46.685Z,15.82
2019-05-21T19:38:16.980Z,15.84
2019-05-21T19:40:46.941Z,15.84
2019-05-21T19:43:16.500Z,15.87
2019-05-21T19:45:46.129Z,15.53
2019-05-21T19:48:15.578Z,15.53
2019-05-21T19:50:45.176Z,15.40
2019-05-21T19:53:14.791Z,15.45
2019-05-21T19:55:44.551Z,15.25
2019-05-21T19:58:14.137Z,15.25
2019-05-21T20:00:51.725Z,15.27
2019-05-21T20:03:21.502Z,15.25
2019-05-21T20:05:51.007Z,15.16
2019-05-21T20:08:20.505Z,15.05
2019-05-21T20:10:49.970Z,14.98
2019-05-21T20:13:31.801Z,14.92
2019-05-21T20:15:50.785Z,14.95
2019-05-21T20:18:20.323Z,15.02
2019-05-21T20:20:50.828Z,14.90
2019-05-21T20:23:21.412Z,14.97
2019-05-21T20:25:56.462Z,15.07
2019-05-21T20:28:22.655Z,15.03
2019-05-21T20:30:52.082Z,15.04
2019-05-21T20:33:21.510Z,15.03
2019-05-21T20:35:52.769Z,14.97
2019-05-21T20:38:23.618Z,14.83
2019-05-21T20:40:53.666Z,14.87
2019-05-21T20:43:23.278Z,14.85
2019-05-21T20:45:59.589Z,14.86
2019-05-21T20:48:32.200Z,14.75
2019-05-21T20:51:02.378Z,14.60
2019-05-21T20:53:32.697Z,14.53
2019-05-21T20:56:02.690Z,14.41
2019-05-21T20:58:32.367Z,14.37
2019-05-21T21:01:02.202Z,14.30
2019-05-21T21:03:32.768Z,14.27
2019-05-21T21:06:03.349Z,14.23
2019-05-21T21:08:36.678Z,14.22
2019-05-21T21:11:07.934Z,14.25
2019-05-21T21:13:37.679Z,14.34
2019-05-21T21:16:07.418Z,14.30
2019-05-21T21:18:36.817Z,14.35
2019-05-21T21:21:06.606Z,14.35
2019-05-21T21:23:37.208Z,14.38
2019-05-21T21:26:06.695Z,14.34
2019-05-21T21:28:36.397Z,14.18
2019-05-21T21:31:06.730Z,14.19
2019-05-21T21:33:36.259Z,14.21
2019-05-21T21:36:05.824Z,14.25
2019-05-21T21:38:37.542Z,14.21
2019-05-21T21:41:08.351Z,14.23
2019-05-21T21:43:37.694Z,14.22
2019-05-21T21:46:07.572Z,14.17
2019-05-21T21:48:37.389Z,14.20
2019-05-21T21:51:08.062Z,14.22
2019-05-21T21:53:39.310Z,14.28
2019-05-21T21:56:08.852Z,14.31
2019-05-21T21:58:38.274Z,14.32
2019-05-21T22:01:52.332Z,14.34
2019-05-21T22:04:25.494Z,14.30
2019-05-21T22:06:56.176Z,14.06
2019-05-21T22:09:34.985Z,13.87
2019-05-21T22:12:06.153Z,13.69
2019-05-21T22:14:49.778Z,13.66
2019-05-21T22:17:09.748Z,13.83
2019-05-21T22:19:40.111Z,13.83
2019-05-21T22:22:10.712Z,13.36
2019-05-21T22:24:40.236Z,13.28
2019-05-21T22:27:09.820Z,13.25
2019-05-21T22:29:39.531Z,13.52
2019-05-21T22:32:08.902Z,13.69
2019-05-21T22:34:38.404Z,13.35
2019-05-21T22:37:09.629Z,13.34
2019-05-21T22:39:40.750Z,13.48
2019-05-21T22:42:11.123Z,13.27
2019-05-21T22:44:40.637Z,13.29
2019-05-21T22:47:10.212Z,13.22
2019-05-21T22:49:39.681Z,13.22
2019-05-21T22:52:09.086Z,13.33
2019-05-21T22:54:38.617Z,13.24
2019-05-21T22:57:08.088Z,13.13
2019-05-21T22:59:37.456Z,13.09
2019-05-21T23:02:10.210Z,13.07
2019-05-21T23:04:39.647Z,13.21
2019-05-21T23:07:09.113Z,13.48
2019-05-21T23:09:38.505Z,13.31
2019-05-21T23:12:08.707Z,13.51
2019-05-21T23:14:38.165Z,13.46
2019-05-21T23:17:08.948Z,13.18
2019-05-21T23:19:39.052Z,13.13
2019-05-21T23:22:11.623Z,13.10
2019-05-21T23:24:41.576Z,13.07
2019-05-21T23:27:12.300Z,13.04
2019-05-21T23:29:42.382Z,13.09
2019-05-21T23:32:12.942Z,13.27
2019-05-21T23:34:44.071Z,13.32
2019-05-21T23:37:19.717Z,13.47
2019-05-21T23:39:52.080Z,13.53
2019-05-21T23:42:29.382Z,13.61
2019-05-21T23:44:52.678Z,13.60
2019-05-21T23:47:22.216Z,13.59
2019-05-21T23:49:51.681Z,13.52
2019-05-21T23:52:21.303Z,13.38
2019-05-21T23:54:50.706Z,13.20
2019-05-21T23:57:27.310Z,13.12
2019-05-21T23:59:57.096Z,13.15
